sensor_id;sensor_type;location;lat;lon;timestamp;P1;durP1;ratioP1;P2;durP2;ratioP2
6131;SDS011;3097;42.692;23.278;2023-08-24T00:01:03;18.80;;;14.23;;
6131;SDS011;3097;42.692;23.278;2023-08-24T00:03:29;19.43;;;13.53;;
6131;SDS011;3097;42.692;23.278;2023-08-24T00:05:54;19.47;;;14.30;;
6131;SDS011;3097;42.692;23.278;2023-08-24T00:08:20;18.27;;;13.20;;
6131;SDS011;3097;42.692;23.278;2023-08-24T00:10:45;21.33;;;14.00;;
6131;SDS011;3097;42.692;23.278;2023-08-24T00:13:12;24.00;;;14.67;;
6131;SDS011;3097;42.692;23.278;2023-08-24T00:15:37;22.63;;;15.47;;
6131;SDS011;3097;42.692;23.278;2023-08-24T00:18:04;35.33;;;20.73;;
6131;SDS011;3097;42.692;23.278;2023-08-24T00:20:30;31.10;;;22.20;;
6131;SDS011;3097;42.692;23.278;2023-08-24T00:22:57;33.73;;;23.00;;
6131;SDS011;3097;42.692;23.278;2023-08-24T00:25:23;34.13;;;22.00;;
6131;SDS011;3097;42.692;23.278;2023-08-24T00:27:49;33.07;;;22.27;;
6131;SDS011;3097;42.692;23.278;2023-08-24T00:30:15;28.67;;;19.93;;
6131;SDS011;3097;42.692;23.278;2023-08-24T00:32:40;29.17;;;20.63;;
6131;SDS011;3097;42.692;23.278;2023-08-24T00:35:06;29.10;;;20.67;;
6131;SDS011;3097;42.692;23.278;2023-08-24T00:37:34;28.30;;;19.47;;
6131;SDS011;3097;42.692;23.278;2023-08-24T00:40:00;28.57;;;19.33;;
6131;SDS011;3097;42.692;23.278;2023-08-24T00:42:29;23.53;;;18.10;;
6131;SDS011;3097;42.692;23.278;2023-08-24T00:44:54;27.13;;;19.30;;
6131;SDS011;3097;42.692;23.278;2023-08-24T00:47:20;27.53;;;19.63;;
6131;SDS011;3097;42.692;23.278;2023-08-24T00:49:46;25.10;;;18.13;;
6131;SDS011;3097;42.692;23.278;2023-08-24T00:52:12;27.73;;;17.83;;
6131;SDS011;3097;42.692;23.278;2023-08-24T00:54:38;24.63;;;17.87;;
6131;SDS011;3097;42.692;23.278;2023-08-24T00:57:04;23.13;;;16.83;;
6131;SDS011;3097;42.692;23.278;2023-08-24T00:59:31;23.43;;;17.77;;
6131;SDS011;3097;42.692;23.278;2023-08-24T01:01:58;25.77;;;16.93;;
6131;SDS011;3097;42.692;23.278;2023-08-24T01:04:25;20.83;;;16.40;;
6131;SDS011;3097;42.692;23.278;2023-08-24T01:06:50;24.23;;;16.57;;
6131;SDS011;3097;42.692;23.278;2023-08-24T01:09:17;21.37;;;16.30;;
6131;SDS011;3097;42.692;23.278;2023-08-24T01:11:58;22.93;;;15.60;;
6131;SDS011;3097;42.692;23.278;2023-08-24T01:14:57;23.57;;;16.17;;
6131;SDS011;3097;42.692;23.278;2023-08-24T01:17:38;19.63;;;15.80;;
6131;SDS011;3097;42.692;23.278;2023-08-24T01:20:06;21.70;;;15.17;;
6131;SDS011;3097;42.692;23.278;2023-08-24T01:25:16;20.70;;;14.90;;
6131;SDS011;3097;42.692;23.278;2023-08-24T01:27:46;20.63;;;14.40;;
6131;SDS011;3097;42.692;23.278;2023-08-24T01:30:14;17.83;;;13.97;;
6131;SDS011;3097;42.692;23.278;2023-08-24T01:32:40;17.77;;;14.07;;
6131;SDS011;3097;42.692;23.278;2023-08-24T01:35:07;15.27;;;12.37;;
6131;SDS011;3097;42.692;23.278;2023-08-24T01:37:34;16.07;;;13.03;;
6131;SDS011;3097;42.692;23.278;2023-08-24T01:40:07;17.43;;;12.97;;
6131;SDS011;3097;42.692;23.278;2023-08-24T01:42:57;16.23;;;13.30;;
6131;SDS011;3097;42.692;23.278;2023-08-24T01:45:29;15.63;;;13.37;;
6131;SDS011;3097;42.692;23.278;2023-08-24T01:47:56;17.90;;;13.37;;
6131;SDS011;3097;42.692;23.278;2023-08-24T01:50:24;17.53;;;12.47;;
6131;SDS011;3097;42.692;23.278;2023-08-24T01:52:50;18.57;;;13.07;;
6131;SDS011;3097;42.692;23.278;2023-08-24T01:55:19;16.30;;;12.50;;
6131;SDS011;3097;42.692;23.278;2023-08-24T01:57:44;17.60;;;12.93;;
6131;SDS011;3097;42.692;23.278;2023-08-24T02:00:10;17.40;;;12.63;;
6131;SDS011;3097;42.692;23.278;2023-08-24T02:02:36;15.27;;;12.63;;
6131;SDS011;3097;42.692;23.278;2023-08-24T02:05:02;19.83;;;13.40;;
6131;SDS011;3097;42.692;23.278;2023-08-24T02:07:28;15.90;;;12.97;;
6131;SDS011;3097;42.692;23.278;2023-08-24T02:09:53;16.33;;;12.93;;
6131;SDS011;3097;42.692;23.278;2023-08-24T02:12:19;14.47;;;12.20;;
6131;SDS011;3097;42.692;23.278;2023-08-24T02:14:44;15.67;;;12.67;;
6131;SDS011;3097;42.692;23.278;2023-08-24T02:17:10;15.67;;;12.13;;
6131;SDS011;3097;42.692;23.278;2023-08-24T02:19:35;18.13;;;12.37;;
6131;SDS011;3097;42.692;23.278;2023-08-24T02:22:00;16.27;;;13.17;;
6131;SDS011;3097;42.692;23.278;2023-08-24T02:24:26;16.60;;;12.23;;
6131;SDS011;3097;42.692;23.278;2023-08-24T02:26:52;14.43;;;11.57;;
6131;SDS011;3097;42.692;23.278;2023-08-24T02:29:17;15.87;;;12.03;;
6131;SDS011;3097;42.692;23.278;2023-08-24T02:31:42;19.20;;;12.27;;
6131;SDS011;3097;42.692;23.278;2023-08-24T02:34:08;15.80;;;12.37;;
6131;SDS011;3097;42.692;23.278;2023-08-24T02:36:33;14.40;;;12.00;;
6131;SDS011;3097;42.692;23.278;2023-08-24T02:38:59;16.67;;;13.00;;
6131;SDS011;3097;42.692;23.278;2023-08-24T02:41:25;17.33;;;13.40;;
6131;SDS011;3097;42.692;23.278;2023-08-24T02:43:51;20.80;;;14.47;;
6131;SDS011;3097;42.692;23.278;2023-08-24T02:46:16;20.30;;;15.50;;
6131;SDS011;3097;42.692;23.278;2023-08-24T02:48:43;22.43;;;15.93;;
6131;SDS011;3097;42.692;23.278;2023-08-24T02:51:09;20.43;;;15.00;;
6131;SDS011;3097;42.692;23.278;2023-08-24T02:53:35;21.10;;;15.13;;
6131;SDS011;3097;42.692;23.278;2023-08-24T02:56:01;21.07;;;14.73;;
6131;SDS011;3097;42.692;23.278;2023-08-24T02:58:27;20.10;;;14.73;;
6131;SDS011;3097;42.692;23.278;2023-08-24T03:00:53;18.27;;;14.60;;
6131;SDS011;3097;42.692;23.278;2023-08-24T03:03:18;18.90;;;14.43;;
6131;SDS011;3097;42.692;23.278;2023-08-24T03:05:57;24.60;;;15.73;;
6131;SDS011;3097;42.692;23.278;2023-08-24T03:08:24;20.13;;;14.20;;
6131;SDS011;3097;42.692;23.278;2023-08-24T03:10:50;22.07;;;15.23;;
6131;SDS011;3097;42.692;23.278;2023-08-24T03:13:16;20.07;;;15.10;;
6131;SDS011;3097;42.692;23.278;2023-08-24T03:15:41;21.93;;;16.50;;
6131;SDS011;3097;42.692;23.278;2023-08-24T03:18:09;19.57;;;13.57;;
6131;SDS011;3097;42.692;23.278;2023-08-24T03:20:36;22.73;;;14.20;;
6131;SDS011;3097;42.692;23.278;2023-08-24T03:23:01;18.80;;;13.00;;
6131;SDS011;3097;42.692;23.278;2023-08-24T03:25:28;16.00;;;12.60;;
6131;SDS011;3097;42.692;23.278;2023-08-24T03:27:53;18.80;;;13.23;;
6131;SDS011;3097;42.692;23.278;2023-08-24T03:30:20;16.57;;;12.57;;
6131;SDS011;3097;42.692;23.278;2023-08-24T03:32:46;15.93;;;12.33;;
6131;SDS011;3097;42.692;23.278;2023-08-24T03:35:11;14.93;;;11.83;;
6131;SDS011;3097;42.692;23.278;2023-08-24T03:37:37;21.90;;;12.60;;
6131;SDS011;3097;42.692;23.278;2023-08-24T03:40:03;17.40;;;12.17;;
6131;SDS011;3097;42.692;23.278;2023-08-24T03:42:29;16.00;;;12.20;;
6131;SDS011;3097;42.692;23.278;2023-08-24T03:44:54;16.27;;;13.17;;
6131;SDS011;3097;42.692;23.278;2023-08-24T03:47:19;19.87;;;14.17;;
6131;SDS011;3097;42.692;23.278;2023-08-24T03:49:45;19.60;;;13.90;;
6131;SDS011;3097;42.692;23.278;2023-08-24T03:52:10;46.30;;;26.13;;
6131;SDS011;3097;42.692;23.278;2023-08-24T03:54:36;81.13;;;40.23;;
6131;SDS011;3097;42.692;23.278;2023-08-24T03:57:01;77.60;;;39.07;;
6131;SDS011;3097;42.692;23.278;2023-08-24T03:59:27;71.87;;;36.73;;
6131;SDS011;3097;42.692;23.278;2023-08-24T04:01:53;66.70;;;33.67;;
6131;SDS011;3097;42.692;23.278;2023-08-24T04:04:18;51.70;;;26.80;;
6131;SDS011;3097;42.692;23.278;2023-08-24T04:06:44;40.30;;;24.03;;
6131;SDS011;3097;42.692;23.278;2023-08-24T04:09:09;40.27;;;22.03;;
6131;SDS011;3097;42.692;23.278;2023-08-24T04:11:35;37.67;;;20.80;;
6131;SDS011;3097;42.692;23.278;2023-08-24T04:14:01;33.17;;;17.30;;
6131;SDS011;3097;42.692;23.278;2023-08-24T04:16:26;25.60;;;16.23;;
6131;SDS011;3097;42.692;23.278;2023-08-24T04:18:52;24.23;;;16.40;;
6131;SDS011;3097;42.692;23.278;2023-08-24T04:21:18;25.87;;;17.03;;
6131;SDS011;3097;42.692;23.278;2023-08-24T04:23:43;33.77;;;18.93;;
6131;SDS011;3097;42.692;23.278;2023-08-24T04:26:13;51.83;;;29.20;;
6131;SDS011;3097;42.692;23.278;2023-08-24T04:28:38;79.33;;;40.03;;
6131;SDS011;3097;42.692;23.278;2023-08-24T04:31:03;77.87;;;39.47;;
6131;SDS011;3097;42.692;23.278;2023-08-24T04:33:29;69.63;;;37.13;;
6131;SDS011;3097;42.692;23.278;2023-08-24T04:35:54;63.70;;;32.70;;
6131;SDS011;3097;42.692;23.278;2023-08-24T04:38:20;62.50;;;32.23;;
6131;SDS011;3097;42.692;23.278;2023-08-24T04:40:49;57.90;;;29.90;;
6131;SDS011;3097;42.692;23.278;2023-08-24T04:43:16;44.80;;;25.17;;
6131;SDS011;3097;42.692;23.278;2023-08-24T04:45:42;33.30;;;21.07;;
6131;SDS011;3097;42.692;23.278;2023-08-24T04:48:10;21.80;;;14.37;;
6131;SDS011;3097;42.692;23.278;2023-08-24T04:50:36;24.80;;;13.00;;
6131;SDS011;3097;42.692;23.278;2023-08-24T04:53:01;21.87;;;13.20;;
6131;SDS011;3097;42.692;23.278;2023-08-24T04:55:27;17.40;;;12.83;;
6131;SDS011;3097;42.692;23.278;2023-08-24T04:57:52;18.23;;;12.97;;
6131;SDS011;3097;42.692;23.278;2023-08-24T05:00:18;17.80;;;13.73;;
6131;SDS011;3097;42.692;23.278;2023-08-24T05:02:43;23.47;;;14.63;;
6131;SDS011;3097;42.692;23.278;2023-08-24T05:05:09;43.80;;;22.50;;
6131;SDS011;3097;42.692;23.278;2023-08-24T05:07:39;43.37;;;22.87;;
6131;SDS011;3097;42.692;23.278;2023-08-24T05:10:06;26.63;;;16.93;;
6131;SDS011;3097;42.692;23.278;2023-08-24T05:12:31;34.47;;;22.43;;
6131;SDS011;3097;42.692;23.278;2023-08-24T05:14:59;39.00;;;21.87;;
6131;SDS011;3097;42.692;23.278;2023-08-24T05:17:24;41.53;;;22.10;;
6131;SDS011;3097;42.692;23.278;2023-08-24T05:19:53;41.13;;;20.83;;
6131;SDS011;3097;42.692;23.278;2023-08-24T05:22:19;41.23;;;22.33;;
6131;SDS011;3097;42.692;23.278;2023-08-24T05:24:44;39.43;;;21.97;;
6131;SDS011;3097;42.692;23.278;2023-08-24T05:27:10;43.47;;;23.97;;
6131;SDS011;3097;42.692;23.278;2023-08-24T05:29:35;38.43;;;22.10;;
6131;SDS011;3097;42.692;23.278;2023-08-24T05:32:00;28.40;;;18.10;;
6131;SDS011;3097;42.692;23.278;2023-08-24T05:34:26;22.33;;;15.10;;
6131;SDS011;3097;42.692;23.278;2023-08-24T05:36:51;20.50;;;14.77;;
6131;SDS011;3097;42.692;23.278;2023-08-24T05:39:17;17.87;;;14.37;;
6131;SDS011;3097;42.692;23.278;2023-08-24T05:41:42;21.67;;;14.90;;
6131;SDS011;3097;42.692;23.278;2023-08-24T05:44:07;18.80;;;14.73;;
6131;SDS011;3097;42.692;23.278;2023-08-24T05:46:33;21.43;;;14.37;;
6131;SDS011;3097;42.692;23.278;2023-08-24T05:48:58;19.13;;;13.87;;
6131;SDS011;3097;42.692;23.278;2023-08-24T05:51:27;18.50;;;14.33;;
6131;SDS011;3097;42.692;23.278;2023-08-24T05:53:53;17.70;;;14.50;;
6131;SDS011;3097;42.692;23.278;2023-08-24T05:56:23;20.53;;;14.57;;
6131;SDS011;3097;42.692;23.278;2023-08-24T05:58:49;18.63;;;13.53;;
6131;SDS011;3097;42.692;23.278;2023-08-24T06:01:15;18.63;;;14.90;;
6131;SDS011;3097;42.692;23.278;2023-08-24T06:03:41;16.20;;;13.70;;
6131;SDS011;3097;42.692;23.278;2023-08-24T06:06:06;18.60;;;14.13;;
6131;SDS011;3097;42.692;23.278;2023-08-24T06:08:34;18.17;;;13.97;;
6131;SDS011;3097;42.692;23.278;2023-08-24T06:10:59;18.10;;;13.73;;
6131;SDS011;3097;42.692;23.278;2023-08-24T06:13:25;15.83;;;13.07;;
6131;SDS011;3097;42.692;23.278;2023-08-24T06:15:51;20.53;;;14.43;;
6131;SDS011;3097;42.692;23.278;2023-08-24T06:18:16;16.37;;;13.63;;
6131;SDS011;3097;42.692;23.278;2023-08-24T06:20:42;17.00;;;13.73;;
6131;SDS011;3097;42.692;23.278;2023-08-24T06:23:07;17.60;;;13.93;;
6131;SDS011;3097;42.692;23.278;2023-08-24T06:25:33;24.87;;;16.57;;
6131;SDS011;3097;42.692;23.278;2023-08-24T06:27:59;30.03;;;18.23;;
6131;SDS011;3097;42.692;23.278;2023-08-24T06:30:27;30.53;;;17.57;;
6131;SDS011;3097;42.692;23.278;2023-08-24T06:32:52;37.77;;;21.30;;
6131;SDS011;3097;42.692;23.278;2023-08-24T06:35:17;34.30;;;19.63;;
6131;SDS011;3097;42.692;23.278;2023-08-24T06:37:43;24.42;;;15.98;;
6131;SDS011;3097;42.692;23.278;2023-08-24T06:40:09;17.85;;;14.95;;
6131;SDS011;3097;42.692;23.278;2023-08-24T06:42:34;18.65;;;15.30;;
6131;SDS011;3097;42.692;23.278;2023-08-24T06:45:00;21.10;;;14.73;;
6131;SDS011;3097;42.692;23.278;2023-08-24T06:47:25;19.80;;;15.07;;
6131;SDS011;3097;42.692;23.278;2023-08-24T06:49:51;14.93;;;13.45;;
6131;SDS011;3097;42.692;23.278;2023-08-24T06:52:16;20.75;;;14.00;;
6131;SDS011;3097;42.692;23.278;2023-08-24T06:54:42;20.80;;;18.52;;
6131;SDS011;3097;42.692;23.278;2023-08-24T06:57:07;15.98;;;14.27;;
6131;SDS011;3097;42.692;23.278;2023-08-24T06:59:32;17.77;;;13.88;;
6131;SDS011;3097;42.692;23.278;2023-08-24T07:01:58;15.30;;;13.70;;
6131;SDS011;3097;42.692;23.278;2023-08-24T07:04:25;17.95;;;13.45;;
6131;SDS011;3097;42.692;23.278;2023-08-24T07:06:52;14.57;;;13.10;;
6131;SDS011;3097;42.692;23.278;2023-08-24T07:09:18;14.25;;;12.75;;
6131;SDS011;3097;42.692;23.278;2023-08-24T07:11:43;13.88;;;12.48;;
6131;SDS011;3097;42.692;23.278;2023-08-24T07:14:09;16.38;;;14.27;;
6131;SDS011;3097;42.692;23.278;2023-08-24T07:16:34;15.27;;;13.25;;
6131;SDS011;3097;42.692;23.278;2023-08-24T07:19:00;15.60;;;12.88;;
6131;SDS011;3097;42.692;23.278;2023-08-24T07:21:25;18.23;;;13.85;;
6131;SDS011;3097;42.692;23.278;2023-08-24T07:23:51;17.73;;;13.32;;
6131;SDS011;3097;42.692;23.278;2023-08-24T07:26:16;13.25;;;11.82;;
6131;SDS011;3097;42.692;23.278;2023-08-24T07:28:42;12.13;;;11.13;;
6131;SDS011;3097;42.692;23.278;2023-08-24T07:31:10;13.68;;;12.35;;
6131;SDS011;3097;42.692;23.278;2023-08-24T07:33:36;12.77;;;11.48;;
6131;SDS011;3097;42.692;23.278;2023-08-24T07:36:04;12.10;;;11.00;;
6131;SDS011;3097;42.692;23.278;2023-08-24T07:38:30;12.30;;;10.80;;
6131;SDS011;3097;42.692;23.278;2023-08-24T07:40:57;12.90;;;11.68;;
6131;SDS011;3097;42.692;23.278;2023-08-24T07:43:23;13.13;;;11.95;;
6131;SDS011;3097;42.692;23.278;2023-08-24T07:45:48;12.45;;;11.23;;
6131;SDS011;3097;42.692;23.278;2023-08-24T07:48:14;12.75;;;11.60;;
6131;SDS011;3097;42.692;23.278;2023-08-24T07:50:40;12.52;;;11.52;;
6131;SDS011;3097;42.692;23.278;2023-08-24T07:53:05;11.88;;;10.88;;
6131;SDS011;3097;42.692;23.278;2023-08-24T07:55:31;13.70;;;12.40;;
6131;SDS011;3097;42.692;23.278;2023-08-24T07:57:56;12.63;;;11.43;;
6131;SDS011;3097;42.692;23.278;2023-08-24T08:00:22;13.05;;;11.75;;
6131;SDS011;3097;42.692;23.278;2023-08-24T08:02:49;13.10;;;11.90;;
6131;SDS011;3097;42.692;23.278;2023-08-24T08:05:15;12.23;;;11.00;;
6131;SDS011;3097;42.692;23.278;2023-08-24T08:07:41;12.90;;;11.80;;
6131;SDS011;3097;42.692;23.278;2023-08-24T08:10:06;11.82;;;10.82;;
6131;SDS011;3097;42.692;23.278;2023-08-24T08:12:32;12.00;;;10.70;;
6131;SDS011;3097;42.692;23.278;2023-08-24T08:14:58;12.13;;;10.90;;
6131;SDS011;3097;42.692;23.278;2023-08-24T08:17:24;12.18;;;11.02;;
6131;SDS011;3097;42.692;23.278;2023-08-24T08:19:54;11.85;;;10.82;;
6131;SDS011;3097;42.692;23.278;2023-08-24T08:22:20;12.98;;;11.40;;
6131;SDS011;3097;42.692;23.278;2023-08-24T08:24:45;12.45;;;11.23;;
6131;SDS011;3097;42.692;23.278;2023-08-24T08:27:11;12.25;;;11.15;;
6131;SDS011;3097;42.692;23.278;2023-08-24T08:29:36;13.10;;;11.88;;
6131;SDS011;3097;42.692;23.278;2023-08-24T08:32:02;11.98;;;10.98;;
6131;SDS011;3097;42.692;23.278;2023-08-24T08:34:27;12.65;;;11.60;;
6131;SDS011;3097;42.692;23.278;2023-08-24T08:36:52;13.05;;;11.57;;
6131;SDS011;3097;42.692;23.278;2023-08-24T08:39:19;12.73;;;11.73;;
6131;SDS011;3097;42.692;23.278;2023-08-24T08:41:44;12.88;;;11.75;;
6131;SDS011;3097;42.692;23.278;2023-08-24T08:44:14;12.75;;;11.45;;
6131;SDS011;3097;42.692;23.278;2023-08-24T08:46:41;12.27;;;11.15;;
6131;SDS011;3097;42.692;23.278;2023-08-24T08:49:07;12.13;;;10.98;;
6131;SDS011;3097;42.692;23.278;2023-08-24T08:51:37;12.18;;;11.10;;
6131;SDS011;3097;42.692;23.278;2023-08-24T08:54:05;11.82;;;10.63;;
6131;SDS011;3097;42.692;23.278;2023-08-24T08:56:32;13.20;;;11.98;;
6131;SDS011;3097;42.692;23.278;2023-08-24T08:58:58;11.98;;;10.90;;
6131;SDS011;3097;42.692;23.278;2023-08-24T09:01:28;12.30;;;11.30;;
6131;SDS011;3097;42.692;23.278;2023-08-24T09:03:55;13.07;;;11.90;;
6131;SDS011;3097;42.692;23.278;2023-08-24T09:06:22;12.50;;;11.40;;
6131;SDS011;3097;42.692;23.278;2023-08-24T09:08:48;13.00;;;11.90;;
6131;SDS011;3097;42.692;23.278;2023-08-24T09:11:14;13.25;;;11.93;;
6131;SDS011;3097;42.692;23.278;2023-08-24T09:13:40;12.50;;;11.40;;
6131;SDS011;3097;42.692;23.278;2023-08-24T09:16:06;12.43;;;11.15;;
6131;SDS011;3097;42.692;23.278;2023-08-24T09:18:36;14.40;;;12.48;;
6131;SDS011;3097;42.692;23.278;2023-08-24T09:21:09;14.10;;;12.60;;
6131;SDS011;3097;42.692;23.278;2023-08-24T09:23:35;13.73;;;12.40;;
6131;SDS011;3097;42.692;23.278;2023-08-24T09:26:01;14.10;;;12.63;;
6131;SDS011;3097;42.692;23.278;2023-08-24T09:28:26;13.77;;;12.40;;
6131;SDS011;3097;42.692;23.278;2023-08-24T09:30:52;14.18;;;12.77;;
6131;SDS011;3097;42.692;23.278;2023-08-24T09:33:20;14.75;;;12.48;;
6131;SDS011;3097;42.692;23.278;2023-08-24T09:35:52;14.35;;;12.82;;
6131;SDS011;3097;42.692;23.278;2023-08-24T09:38:20;15.13;;;13.63;;
6131;SDS011;3097;42.692;23.278;2023-08-24T09:40:51;14.25;;;12.80;;
6131;SDS011;3097;42.692;23.278;2023-08-24T09:43:17;14.60;;;12.90;;
6131;SDS011;3097;42.692;23.278;2023-08-24T09:46:00;13.85;;;12.57;;
6131;SDS011;3097;42.692;23.278;2023-08-24T09:48:28;13.95;;;12.65;;
6131;SDS011;3097;42.692;23.278;2023-08-24T09:50:53;14.75;;;13.25;;
6131;SDS011;3097;42.692;23.278;2023-08-24T09:53:22;14.00;;;12.63;;
6131;SDS011;3097;42.692;23.278;2023-08-24T09:55:57;13.57;;;12.30;;
6131;SDS011;3097;42.692;23.278;2023-08-24T09:58:25;13.50;;;12.30;;
6131;SDS011;3097;42.692;23.278;2023-08-24T10:00:52;13.15;;;12.00;;
6131;SDS011;3097;42.692;23.278;2023-08-24T10:03:18;14.18;;;12.85;;
6131;SDS011;3097;42.692;23.278;2023-08-24T10:05:47;13.32;;;12.18;;
6131;SDS011;3097;42.692;23.278;2023-08-24T10:08:15;15.25;;;13.77;;
6131;SDS011;3097;42.692;23.278;2023-08-24T10:10:44;13.63;;;12.38;;
6131;SDS011;3097;42.692;23.278;2023-08-24T10:13:17;12.65;;;11.65;;
6131;SDS011;3097;42.692;23.278;2023-08-24T10:15:46;13.93;;;12.35;;
6131;SDS011;3097;42.692;23.278;2023-08-24T10:18:14;12.45;;;11.20;;
6131;SDS011;3097;42.692;23.278;2023-08-24T10:20:41;12.05;;;10.98;;
6131;SDS011;3097;42.692;23.278;2023-08-24T10:23:10;12.30;;;11.20;;
6131;SDS011;3097;42.692;23.278;2023-08-24T10:25:37;11.55;;;10.55;;
6131;SDS011;3097;42.692;23.278;2023-08-24T10:28:04;13.05;;;11.85;;
6131;SDS011;3097;42.692;23.278;2023-08-24T10:30:32;12.40;;;11.15;;
6131;SDS011;3097;42.692;23.278;2023-08-24T10:32:59;12.13;;;11.13;;
6131;SDS011;3097;42.692;23.278;2023-08-24T10:35:25;12.32;;;11.23;;
6131;SDS011;3097;42.692;23.278;2023-08-24T10:37:52;12.10;;;10.90;;
6131;SDS011;3097;42.692;23.278;2023-08-24T10:40:33;11.93;;;10.50;;
6131;SDS011;3097;42.692;23.278;2023-08-24T10:43:03;11.13;;;10.02;;
6131;SDS011;3097;42.692;23.278;2023-08-24T10:48:25;11.27;;;10.38;;
6131;SDS011;3097;42.692;23.278;2023-08-24T10:56:39;12.50;;;10.85;;
6131;SDS011;3097;42.692;23.278;2023-08-24T10:59:17;12.70;;;11.40;;
6131;SDS011;3097;42.692;23.278;2023-08-24T11:04:18;14.02;;;10.45;;
6131;SDS011;3097;42.692;23.278;2023-08-24T11:06:57;12.90;;;11.68;;
6131;SDS011;3097;42.692;23.278;2023-08-24T11:09:24;10.32;;;9.52;;
6131;SDS011;3097;42.692;23.278;2023-08-24T11:12:00;9.60;;;8.70;;
6131;SDS011;3097;42.692;23.278;2023-08-24T11:14:28;10.30;;;9.30;;
6131;SDS011;3097;42.692;23.278;2023-08-24T11:17:18;9.43;;;8.63;;
6131;SDS011;3097;42.692;23.278;2023-08-24T11:19:53;9.00;;;8.30;;
6131;SDS011;3097;42.692;23.278;2023-08-24T11:22:19;12.27;;;8.18;;
6131;SDS011;3097;42.692;23.278;2023-08-24T11:24:46;9.07;;;8.38;;
6131;SDS011;3097;42.692;23.278;2023-08-24T11:27:12;9.60;;;8.52;;
6131;SDS011;3097;42.692;23.278;2023-08-24T11:29:37;8.98;;;8.18;;
6131;SDS011;3097;42.692;23.278;2023-08-24T11:32:03;9.45;;;8.75;;
6131;SDS011;3097;42.692;23.278;2023-08-24T11:34:32;9.70;;;8.90;;
6131;SDS011;3097;42.692;23.278;2023-08-24T11:36:59;9.48;;;8.68;;
6131;SDS011;3097;42.692;23.278;2023-08-24T11:39:24;9.05;;;8.35;;
6131;SDS011;3097;42.692;23.278;2023-08-24T11:42:23;9.77;;;8.98;;
6131;SDS011;3097;42.692;23.278;2023-08-24T11:44:45;9.80;;;8.90;;
6131;SDS011;3097;42.692;23.278;2023-08-24T11:47:14;11.00;;;9.90;;
6131;SDS011;3097;42.692;23.278;2023-08-24T11:49:40;10.80;;;9.75;;
6131;SDS011;3097;42.692;23.278;2023-08-24T11:52:06;10.77;;;9.40;;
6131;SDS011;3097;42.692;23.278;2023-08-24T11:54:32;11.15;;;9.75;;
6131;SDS011;3097;42.692;23.278;2023-08-24T11:56:58;10.05;;;9.13;;
6131;SDS011;3097;42.692;23.278;2023-08-24T11:59:23;9.95;;;8.82;;
6131;SDS011;3097;42.692;23.278;2023-08-24T12:01:50;10.48;;;9.57;;
6131;SDS011;3097;42.692;23.278;2023-08-24T12:04:16;9.70;;;8.90;;
6131;SDS011;3097;42.692;23.278;2023-08-24T12:06:41;13.05;;;9.63;;
6131;SDS011;3097;42.692;23.278;2023-08-24T12:09:07;11.85;;;10.70;;
6131;SDS011;3097;42.692;23.278;2023-08-24T12:11:36;11.35;;;10.23;;
6131;SDS011;3097;42.692;23.278;2023-08-24T12:14:02;12.10;;;10.90;;
6131;SDS011;3097;42.692;23.278;2023-08-24T12:16:30;11.32;;;10.13;;
6131;SDS011;3097;42.692;23.278;2023-08-24T12:18:58;12.45;;;11.00;;
6131;SDS011;3097;42.692;23.278;2023-08-24T12:21:25;11.18;;;10.13;;
6131;SDS011;3097;42.692;23.278;2023-08-24T12:24:13;11.82;;;10.63;;
6131;SDS011;3097;42.692;23.278;2023-08-24T12:26:39;11.95;;;10.75;;
6131;SDS011;3097;42.692;23.278;2023-08-24T12:29:05;11.40;;;9.60;;
6131;SDS011;3097;42.692;23.278;2023-08-24T12:31:35;10.63;;;9.63;;
6131;SDS011;3097;42.692;23.278;2023-08-24T12:34:07;11.20;;;10.20;;
6131;SDS011;3097;42.692;23.278;2023-08-24T12:36:37;12.32;;;10.52;;
6131;SDS011;3097;42.692;23.278;2023-08-24T12:39:04;10.68;;;9.77;;
6131;SDS011;3097;42.692;23.278;2023-08-24T12:41:31;11.05;;;10.00;;
6131;SDS011;3097;42.692;23.278;2023-08-24T12:43:57;11.23;;;10.15;;
6131;SDS011;3097;42.692;23.278;2023-08-24T12:46:23;12.52;;;11.23;;
6131;SDS011;3097;42.692;23.278;2023-08-24T12:48:49;14.05;;;12.15;;
6131;SDS011;3097;42.692;23.278;2023-08-24T12:51:16;12.00;;;10.73;;
6131;SDS011;3097;42.692;23.278;2023-08-24T12:53:42;10.45;;;9.55;;
6131;SDS011;3097;42.692;23.278;2023-08-24T12:56:08;11.20;;;10.05;;
6131;SDS011;3097;42.692;23.278;2023-08-24T12:58:33;11.35;;;10.35;;
6131;SDS011;3097;42.692;23.278;2023-08-24T13:00:59;13.20;;;11.95;;
6131;SDS011;3097;42.692;23.278;2023-08-24T13:03:24;12.35;;;11.25;;
6131;SDS011;3097;42.692;23.278;2023-08-24T13:05:50;13.05;;;11.25;;
6131;SDS011;3097;42.692;23.278;2023-08-24T13:08:15;12.57;;;11.38;;
6131;SDS011;3097;42.692;23.278;2023-08-24T13:10:41;12.82;;;11.00;;
6131;SDS011;3097;42.692;23.278;2023-08-24T13:13:07;12.18;;;11.00;;
6131;SDS011;3097;42.692;23.278;2023-08-24T13:15:32;11.88;;;10.68;;
6131;SDS011;3097;42.692;23.278;2023-08-24T13:17:58;12.27;;;10.98;;
6131;SDS011;3097;42.692;23.278;2023-08-24T13:20:24;11.88;;;10.57;;
6131;SDS011;3097;42.692;23.278;2023-08-24T13:22:51;10.98;;;10.00;;
6131;SDS011;3097;42.692;23.278;2023-08-24T13:25:17;11.50;;;10.40;;
6131;SDS011;3097;42.692;23.278;2023-08-24T13:27:43;11.35;;;10.25;;
6131;SDS011;3097;42.692;23.278;2023-08-24T13:30:09;12.18;;;10.75;;
6131;SDS011;3097;42.692;23.278;2023-08-24T13:32:34;11.93;;;9.80;;
6131;SDS011;3097;42.692;23.278;2023-08-24T13:35:00;10.63;;;9.75;;
6131;SDS011;3097;42.692;23.278;2023-08-24T13:37:26;10.30;;;9.50;;
6131;SDS011;3097;42.692;23.278;2023-08-24T13:39:52;10.30;;;9.25;;
6131;SDS011;3097;42.692;23.278;2023-08-24T13:42:17;11.73;;;10.63;;
6131;SDS011;3097;42.692;23.278;2023-08-24T13:44:44;10.90;;;9.80;;
6131;SDS011;3097;42.692;23.278;2023-08-24T13:47:10;11.70;;;10.57;;
6131;SDS011;3097;42.692;23.278;2023-08-24T13:49:36;10.93;;;9.82;;
6131;SDS011;3097;42.692;23.278;2023-08-24T13:52:02;11.93;;;10.57;;
6131;SDS011;3097;42.692;23.278;2023-08-24T13:54:27;11.93;;;10.73;;
6131;SDS011;3097;42.692;23.278;2023-08-24T13:56:53;12.80;;;10.77;;
6131;SDS011;3097;42.692;23.278;2023-08-24T13:59:21;11.73;;;10.27;;
6131;SDS011;3097;42.692;23.278;2023-08-24T14:01:46;12.55;;;11.18;;
6131;SDS011;3097;42.692;23.278;2023-08-24T14:04:13;11.10;;;10.00;;
6131;SDS011;3097;42.692;23.278;2023-08-24T14:06:38;11.93;;;10.90;;
6131;SDS011;3097;42.692;23.278;2023-08-24T14:09:04;20.08;;;16.50;;
6131;SDS011;3097;42.692;23.278;2023-08-24T14:11:30;12.48;;;11.27;;
6131;SDS011;3097;42.692;23.278;2023-08-24T14:13:58;11.52;;;10.43;;
6131;SDS011;3097;42.692;23.278;2023-08-24T14:16:24;12.63;;;11.30;;
6131;SDS011;3097;42.692;23.278;2023-08-24T14:18:51;20.73;;;16.40;;
6131;SDS011;3097;42.692;23.278;2023-08-24T14:21:17;12.60;;;11.27;;
6131;SDS011;3097;42.692;23.278;2023-08-24T14:23:42;10.82;;;9.82;;
6131;SDS011;3097;42.692;23.278;2023-08-24T14:26:08;11.95;;;10.68;;
6131;SDS011;3097;42.692;23.278;2023-08-24T14:31:23;11.45;;;10.40;;
6131;SDS011;3097;42.692;23.278;2023-08-24T14:33:51;11.82;;;10.63;;
6131;SDS011;3097;42.692;23.278;2023-08-24T14:36:17;13.05;;;10.45;;
6131;SDS011;3097;42.692;23.278;2023-08-24T14:38:43;13.55;;;11.02;;
6131;SDS011;3097;42.692;23.278;2023-08-24T14:41:08;11.75;;;10.43;;
6131;SDS011;3097;42.692;23.278;2023-08-24T14:43:36;13.07;;;10.25;;
6131;SDS011;3097;42.692;23.278;2023-08-24T14:46:01;12.27;;;9.25;;
6131;SDS011;3097;42.692;23.278;2023-08-24T14:48:27;10.35;;;9.45;;
6131;SDS011;3097;42.692;23.278;2023-08-24T14:50:52;9.95;;;8.93;;